createdAt,value
2022-10-18T00:00:48.056Z,6.28
2022-10-18T00:03:14.840Z,6.55
2022-10-18T00:05:41.547Z,9.43
2022-10-18T00:08:08.220Z,6.63
2022-10-18T00:10:34.948Z,6.35
2022-10-18T00:13:01.845Z,5.88
2022-10-18T00:15:28.521Z,7.07
2022-10-18T00:17:55.211Z,6.40
2022-10-18T00:20:22.054Z,6.30
2022-10-18T00:22:48.758Z,6.22
2022-10-18T00:25:15.481Z,5.80
2022-10-18T00:27:42.296Z,6.30
2022-10-18T00:30:09.593Z,6.13
2022-10-18T00:32:38.253Z,6.47
2022-10-18T00:35:06.179Z,6.03
2022-10-18T00:37:34.074Z,7.00
2022-10-18T00:40:01.183Z,7.00
2022-10-18T00:42:34.470Z,6.10
2022-10-18T00:45:18.498Z,6.47
2022-10-18T00:47:48.599Z,5.97
2022-10-18T00:50:15.720Z,6.75
2022-10-18T00:52:52.461Z,6.47
2022-10-18T00:55:19.667Z,6.38
2022-10-18T00:57:47.301Z,6.10
2022-10-18T01:00:14.341Z,6.80
2022-10-18T01:02:43.494Z,6.85
2022-10-18T01:05:12.992Z,7.28
2022-10-18T01:07:45.451Z,6.75
2022-10-18T01:10:37.194Z,6.22
2022-10-18T01:13:30.714Z,6.90
2022-10-18T01:16:03.318Z,6.68
2022-10-18T01:18:29.958Z,6.85
2022-10-18T01:21:17.516Z,6.32
2022-10-18T01:24:07.025Z,7.80
2022-10-18T01:26:48.130Z,6.30
2022-10-18T01:29:41.456Z,6.80
2022-10-18T01:32:28.802Z,6.15
2022-10-18T01:35:03.986Z,6.78
2022-10-18T01:37:32.645Z,6.72
2022-10-18T01:40:03.623Z,5.68
2022-10-18T01:42:31.760Z,7.88
2022-10-18T01:45:00.287Z,6.95
2022-10-18T01:47:28.008Z,5.72
2022-10-18T01:50:04.152Z,7.60
2022-10-18T01:52:31.463Z,7.65
2022-10-18T01:55:00.481Z,6.68
2022-10-18T01:57:37.462Z,5.50
2022-10-18T02:00:16.547Z,6.05
2022-10-18T02:02:43.167Z,5.90
2022-10-18T02:05:19.067Z,6.13
2022-10-18T02:08:00.198Z,6.50
2022-10-18T02:11:05.715Z,6.07
2022-10-18T02:14:03.095Z,6.97
2022-10-18T02:16:40.750Z,6.22
2022-10-18T02:19:39.845Z,5.50
2022-10-18T02:22:08.721Z,6.60
2022-10-18T02:24:38.838Z,5.97
2022-10-18T02:27:05.973Z,6.10
2022-10-18T02:29:33.361Z,7.60
2022-10-18T02:32:26.218Z,5.90
2022-10-18T02:35:03.558Z,5.90
2022-10-18T02:37:36.208Z,7.93
2022-10-18T02:40:05.825Z,5.85
2022-10-18T02:42:37.125Z,6.45
2022-10-18T02:45:05.929Z,7.43
2022-10-18T02:47:33.031Z,7.03
2022-10-18T02:49:59.875Z,6.25
2022-10-18T02:52:26.568Z,6.30
2022-10-18T02:54:53.360Z,6.05
2022-10-18T02:57:20.108Z,6.85
2022-10-18T02:59:47.129Z,6.20
2022-10-18T03:02:13.822Z,6.90
2022-10-18T03:04:40.528Z,5.80
2022-10-18T03:07:07.326Z,6.65
2022-10-18T03:09:33.985Z,6.50
2022-10-18T03:12:00.822Z,6.15
2022-10-18T03:14:27.513Z,6.90
2022-10-18T03:16:54.232Z,6.80
2022-10-18T03:19:20.942Z,6.65
2022-10-18T03:21:47.695Z,6.72
2022-10-18T03:24:14.514Z,6.15
2022-10-18T03:26:41.191Z,6.32
2022-10-18T03:29:11.202Z,6.53
2022-10-18T03:31:38.074Z,6.60
2022-10-18T03:34:04.847Z,7.60
2022-10-18T03:36:31.661Z,6.93
2022-10-18T03:38:58.305Z,7.20
2022-10-18T03:41:25.034Z,7.63
2022-10-18T03:43:51.739Z,7.28
2022-10-18T03:46:18.432Z,7.60
2022-10-18T03:48:45.213Z,6.97
2022-10-18T03:51:11.969Z,8.88
2022-10-18T03:53:38.641Z,7.15
2022-10-18T03:56:05.826Z,7.22
2022-10-18T04:01:06.637Z,7.13
2022-10-18T04:03:33.683Z,7.65
2022-10-18T04:06:00.882Z,7.00
2022-10-18T04:08:27.581Z,8.20
2022-10-18T04:10:54.318Z,7.63
2022-10-18T04:13:44.160Z,7.70
2022-10-18T04:16:11.042Z,6.68
2022-10-18T04:18:37.852Z,7.90
2022-10-18T04:21:04.701Z,7.95
2022-10-18T04:23:33.899Z,10.15
2022-10-18T04:26:03.264Z,8.93
2022-10-18T04:28:35.336Z,11.38
2022-10-18T04:31:02.158Z,9.48
2022-10-18T04:33:28.833Z,12.00
2022-10-18T04:35:55.562Z,10.75
2022-10-18T04:38:22.296Z,9.95
2022-10-18T04:40:50.581Z,10.00
2022-10-18T04:43:17.575Z,11.35
2022-10-18T04:45:48.213Z,13.07
2022-10-18T04:48:15.510Z,14.65
2022-10-18T04:50:42.206Z,12.63
2022-10-18T04:53:09.120Z,12.30
2022-10-18T04:55:36.239Z,15.15
2022-10-18T04:58:03.016Z,11.65
2022-10-18T05:00:30.086Z,13.88
2022-10-18T05:03:00.088Z,13.25
2022-10-18T05:05:43.232Z,13.57
2022-10-18T05:08:14.122Z,14.35
2022-10-18T05:10:41.059Z,16.63
2022-10-18T05:13:07.866Z,16.25
2022-10-18T05:15:34.582Z,17.40
2022-10-18T05:18:01.336Z,12.77
2022-10-18T05:20:28.284Z,14.48
2022-10-18T05:22:54.976Z,15.00
2022-10-18T05:25:21.677Z,15.38
2022-10-18T05:27:48.389Z,15.15
2022-10-18T05:30:15.179Z,17.40
2022-10-18T05:32:41.900Z,16.98
2022-10-18T05:35:08.862Z,13.40
2022-10-18T05:37:36.047Z,14.93
2022-10-18T05:40:02.935Z,12.80
2022-10-18T05:42:30.319Z,13.18
2022-10-18T05:44:57.254Z,15.80
2022-10-18T05:47:24.042Z,14.70
2022-10-18T05:49:50.920Z,16.15
2022-10-18T05:52:17.695Z,16.80
2022-10-18T05:54:44.457Z,14.68
2022-10-18T05:57:11.209Z,16.88
2022-10-18T05:59:38.032Z,16.13
2022-10-18T06:02:04.827Z,13.10
2022-10-18T06:04:31.571Z,18.85
2022-10-18T06:06:58.350Z,19.08
2022-10-18T06:09:26.010Z,14.57
2022-10-18T06:11:52.912Z,15.52
2022-10-18T06:14:19.651Z,16.35
2022-10-18T06:16:46.459Z,16.48
2022-10-18T06:19:19.316Z,16.13
2022-10-18T06:21:49.098Z,16.90
2022-10-18T06:24:18.327Z,20.20
2022-10-18T06:26:45.118Z,19.00
2022-10-18T06:29:12.116Z,22.52
2022-10-18T06:31:38.886Z,19.02
2022-10-18T06:34:05.699Z,21.13
2022-10-18T06:36:32.475Z,20.75
2022-10-18T06:38:59.983Z,19.23
2022-10-18T06:41:26.658Z,20.60
2022-10-18T06:43:58.447Z,27.20
2022-10-18T06:46:25.785Z,26.80
2022-10-18T06:48:52.756Z,21.75
2022-10-18T06:51:20.069Z,23.05
2022-10-18T06:53:59.234Z,23.25
2022-10-18T06:56:34.688Z,19.95
2022-10-18T06:59:01.517Z,21.17
2022-10-18T07:01:28.691Z,25.42
2022-10-18T07:03:56.301Z,26.05
2022-10-18T07:06:24.163Z,22.77
2022-10-18T07:08:54.006Z,25.50
2022-10-18T07:11:26.350Z,19.87
2022-10-18T07:13:55.185Z,23.42
2022-10-18T07:16:22.258Z,21.38
2022-10-18T07:18:50.975Z,24.13
2022-10-18T07:21:20.823Z,26.63
2022-10-18T07:23:48.645Z,27.07
2022-10-18T07:26:20.178Z,24.98
2022-10-18T07:28:49.299Z,26.42
2022-10-18T07:31:16.272Z,22.35
2022-10-18T07:33:43.107Z,32.22
2022-10-18T07:36:11.750Z,30.10
2022-10-18T07:38:38.591Z,25.00
2022-10-18T07:41:07.003Z,27.95
2022-10-18T07:43:34.486Z,27.35
2022-10-18T07:46:03.353Z,26.33
2022-10-18T07:48:30.336Z,26.35
2022-10-18T07:51:01.411Z,34.75
2022-10-18T07:53:31.674Z,26.15
2022-10-18T07:56:01.368Z,30.13
2022-10-18T07:58:32.407Z,25.70
2022-10-18T08:01:06.450Z,31.88
2022-10-18T08:03:33.633Z,29.17
2022-10-18T08:06:00.693Z,32.53
2022-10-18T08:08:28.300Z,29.15
2022-10-18T08:10:55.818Z,33.15
2022-10-18T08:13:22.825Z,33.67
2022-10-18T08:15:49.530Z,37.08
2022-10-18T08:18:16.289Z,33.85
2022-10-18T08:20:45.109Z,34.40
2022-10-18T08:23:12.072Z,30.48
2022-10-18T08:25:40.297Z,32.47
2022-10-18T08:28:11.348Z,35.50
2022-10-18T08:30:45.587Z,40.85
2022-10-18T08:33:16.580Z,37.53
2022-10-18T08:36:07.361Z,40.40
2022-10-18T08:38:39.494Z,39.47
2022-10-18T08:41:49.403Z,41.17
2022-10-18T08:44:32.891Z,37.45
2022-10-18T08:47:08.083Z,41.25
2022-10-18T08:49:58.953Z,36.70
2022-10-18T08:55:39.827Z,46.60
2022-10-18T08:58:32.608Z,50.35
2022-10-18T09:01:37.782Z,49.33
2022-10-18T09:04:26.806Z,59.70
2022-10-18T09:07:24.320Z,55.50
2022-10-18T09:10:15.121Z,54.70
2022-10-18T09:13:08.571Z,63.38
2022-10-18T09:18:48.803Z,57.05
2022-10-18T09:21:50.000Z,52.40
2022-10-18T09:24:34.958Z,56.58
2022-10-18T09:27:20.911Z,53.28
2022-10-18T09:30:15.220Z,55.45
2022-10-18T09:33:27.264Z,63.17
2022-10-18T09:36:22.358Z,53.95
2022-10-18T09:38:58.642Z,51.75
2022-10-18T09:41:41.559Z,49.63
2022-10-18T09:44:26.260Z,48.42
2022-10-18T09:47:06.626Z,54.28
2022-10-18T09:50:16.803Z,56.00
2022-10-18T09:52:54.196Z,55.03
2022-10-18T09:55:35.443Z,51.00
2022-10-18T09:58:09.149Z,49.72
2022-10-18T10:00:52.340Z,52.92
2022-10-18T10:03:24.691Z,53.28
2022-10-18T10:06:18.867Z,55.38
2022-10-18T10:09:00.753Z,45.63
2022-10-18T10:11:38.854Z,44.47
2022-10-18T10:14:28.771Z,43.15
2022-10-18T10:17:34.265Z,47.38
2022-10-18T10:20:39.317Z,46.50
2022-10-18T10:23:39.723Z,51.10
2022-10-18T10:26:40.737Z,45.40
2022-10-18T10:29:51.186Z,42.05
2022-10-18T10:32:21.566Z,44.35
2022-10-18T10:34:49.658Z,41.55
2022-10-18T10:37:28.198Z,45.30
2022-10-18T10:40:20.451Z,40.65
2022-10-18T10:43:36.597Z,39.17
2022-10-18T10:46:16.362Z,36.80
2022-10-18T10:49:04.197Z,40.28
2022-10-18T10:51:41.496Z,32.95
2022-10-18T10:54:25.177Z,33.08
2022-10-18T10:57:13.024Z,34.70
2022-10-18T10:59:50.227Z,40.88
2022-10-18T11:02:28.125Z,35.97
2022-10-18T11:04:59.705Z,34.35
2022-10-18T11:07:42.506Z,33.25
2022-10-18T11:10:24.182Z,34.78
2022-10-18T11:13:35.628Z,35.40
2022-10-18T11:16:49.966Z,40.83
2022-10-18T11:20:02.976Z,36.00
2022-10-18T11:22:39.006Z,31.60
2022-10-18T11:28:17.412Z,32.30
2022-10-18T11:31:13.988Z,30.77
2022-10-18T11:34:34.645Z,31.08
2022-10-18T11:37:29.157Z,29.00
2022-10-18T11:41:13.448Z,28.15
2022-10-18T11:44:09.623Z,24.67
2022-10-18T11:47:22.422Z,29.05
2022-10-18T11:50:29.550Z,27.75
2022-10-18T11:53:26.623Z,30.50
2022-10-18T11:56:49.804Z,27.85
2022-10-18T12:00:01.643Z,23.05
2022-10-18T12:03:21.582Z,19.25
2022-10-18T12:05:52.820Z,19.98
2022-10-18T12:08:53.480Z,20.27
2022-10-18T12:11:32.605Z,20.05
2022-10-18T12:14:33.295Z,18.73
2022-10-18T12:17:41.804Z,17.30
2022-10-18T12:20:03.497Z,19.40
2022-10-18T12:23:01.167Z,16.90
2022-10-18T12:25:39.036Z,15.98
2022-10-18T12:28:18.671Z,13.70
2022-10-18T12:31:15.967Z,12.35
2022-10-18T12:33:55.161Z,14.05
2022-10-18T12:36:31.055Z,14.45
2022-10-18T12:39:10.808Z,14.50
2022-10-18T12:41:49.395Z,13.85
2022-10-18T12:44:25.989Z,14.18
2022-10-18T12:47:00.945Z,14.13
2022-10-18T12:49:59.304Z,14.55
2022-10-18T12:53:01.580Z,14.20
2022-10-18T12:55:41.054Z,14.75
2022-10-18T12:58:23.996Z,10.43
2022-10-18T13:04:01.989Z,9.85
2022-10-18T13:07:09.968Z,11.15
2022-10-18T13:10:19.711Z,12.02
2022-10-18T13:13:38.294Z,9.68
2022-10-18T13:16:37.070Z,13.20
2022-10-18T13:19:34.819Z,12.25
2022-10-18T13:22:41.024Z,9.00
2022-10-18T13:25:36.407Z,8.07
2022-10-18T13:28:25.875Z,9.60
2022-10-18T13:31:19.063Z,7.93
2022-10-18T13:33:51.123Z,8.70
2022-10-18T13:36:22.922Z,8.20
2022-10-18T13:39:09.502Z,8.35
2022-10-18T13:42:02.662Z,7.93
2022-10-18T13:44:51.874Z,7.90
2022-10-18T13:47:41.116Z,7.30
2022-10-18T13:50:41.065Z,8.18
2022-10-18T13:53:23.907Z,9.65
2022-10-18T13:56:16.938Z,9.85
2022-10-18T13:59:27.655Z,8.93
2022-10-18T14:02:50.651Z,9.02
2022-10-18T14:05:26.061Z,7.22
2022-10-18T14:08:46.801Z,8.02
2022-10-18T14:11:47.548Z,7.40
2022-10-18T14:15:09.863Z,6.78
2022-10-18T14:18:00.974Z,7.10
2022-10-18T14:21:01.439Z,6.93
2022-10-18T14:23:40.902Z,9.50
2022-10-18T14:29:19.607Z,7.72
2022-10-18T14:31:57.645Z,8.63
2022-10-18T14:34:25.934Z,10.93
2022-10-18T14:36:56.800Z,12.68
2022-10-18T14:39:40.816Z,6.43
2022-10-18T14:45:06.597Z,8.10
2022-10-18T14:47:47.455Z,10.38
2022-10-18T14:50:30.356Z,7.03
2022-10-18T14:52:58.829Z,7.18
2022-10-18T14:55:34.848Z,8.40
2022-10-18T14:58:07.631Z,7.85
2022-10-18T15:01:01.511Z,9.93
2022-10-18T15:03:40.887Z,6.95
2022-10-18T15:06:19.431Z,6.80
2022-10-18T15:08:57.637Z,8.43
2022-10-18T15:11:26.722Z,7.07
2022-10-18T15:17:00.399Z,12.32
2022-10-18T15:19:41.646Z,8.35
2022-10-18T15:25:30.857Z,10.57
2022-10-18T15:28:29.116Z,7.80
2022-10-18T15:31:01.192Z,6.78
2022-10-18T15:33:34.993Z,6.50
2022-10-18T15:36:10.470Z,10.68
2022-10-18T15:38:41.262Z,8.07
2022-10-18T15:41:56.475Z,6.57
2022-10-18T15:44:48.828Z,10.82
2022-10-18T15:47:23.132Z,9.80
2022-10-18T15:50:00.737Z,6.68
2022-10-18T15:52:42.151Z,7.15
2022-10-18T15:55:31.493Z,7.00
2022-10-18T15:58:33.970Z,6.90
2022-10-18T16:01:06.019Z,7.25
2022-10-18T16:06:20.673Z,6.80
2022-10-18T16:08:52.800Z,7.15
2022-10-18T16:11:26.371Z,7.65
2022-10-18T16:14:02.834Z,8.05
2022-10-18T16:16:40.060Z,8.75
2022-10-18T16:19:11.156Z,7.78
2022-10-18T16:21:39.618Z,7.50
2022-10-18T16:24:09.714Z,7.78
2022-10-18T16:26:41.404Z,7.22
2022-10-18T16:29:16.823Z,7.47
2022-10-18T16:31:50.328Z,7.40
2022-10-18T16:34:19.636Z,8.15
2022-10-18T16:36:47.065Z,9.45
2022-10-18T16:39:21.234Z,10.82
2022-10-18T16:41:57.974Z,8.77
2022-10-18T16:44:32.014Z,7.60
2022-10-18T16:46:59.101Z,7.72
2022-10-18T16:49:30.310Z,7.38
2022-10-18T16:52:02.397Z,7.20
2022-10-18T16:54:39.269Z,7.38
2022-10-18T16:57:06.745Z,8.60
2022-10-18T16:59:33.697Z,13.15
2022-10-18T17:02:09.079Z,10.85
2022-10-18T17:04:37.164Z,9.88
2022-10-18T17:07:06.090Z,9.63
2022-10-18T17:09:39.601Z,10.10
2022-10-18T17:12:09.510Z,8.93
2022-10-18T17:14:37.485Z,8.07
2022-10-18T17:17:13.729Z,7.55
2022-10-18T17:19:47.696Z,8.70
2022-10-18T17:22:14.538Z,7.37
2022-10-18T17:24:43.148Z,7.70
2022-10-18T17:27:13.597Z,7.78
2022-10-18T17:29:52.231Z,8.23
2022-10-18T17:32:22.592Z,8.40
2022-10-18T17:34:52.093Z,8.48
2022-10-18T17:37:23.337Z,8.23
2022-10-18T17:39:55.803Z,13.38
2022-10-18T17:42:23.862Z,11.38
2022-10-18T17:44:54.268Z,9.63
2022-10-18T17:47:25.971Z,13.60
2022-10-18T17:49:53.846Z,8.45
2022-10-18T17:52:24.925Z,9.68
2022-10-18T17:54:53.740Z,8.13
2022-10-18T17:57:21.664Z,9.38
2022-10-18T17:59:50.026Z,9.68
2022-10-18T18:02:25.397Z,11.10
2022-10-18T18:04:58.529Z,10.68
2022-10-18T18:07:28.012Z,11.30
2022-10-18T18:09:57.302Z,10.25
2022-10-18T18:12:37.409Z,11.02
2022-10-18T18:15:09.957Z,8.13
2022-10-18T18:17:56.629Z,8.88
2022-10-18T18:20:28.177Z,11.88
2022-10-18T18:23:00.473Z,9.07
2022-10-18T18:25:30.084Z,11.85
2022-10-18T18:28:05.169Z,8.60
2022-10-18T18:30:49.783Z,14.43
2022-10-18T18:33:22.543Z,8.18
2022-10-18T18:36:01.458Z,8.52
2022-10-18T18:38:29.301Z,10.45
2022-10-18T18:41:07.232Z,17.17
2022-10-18T18:43:38.371Z,15.52
2022-10-18T18:46:16.503Z,12.10
2022-10-18T18:48:56.591Z,10.48
2022-10-18T18:51:33.230Z,9.77
2022-10-18T18:54:06.519Z,21.80
2022-10-18T18:56:33.698Z,12.77
2022-10-18T18:59:05.546Z,13.93
2022-10-18T19:01:46.413Z,12.05
2022-10-18T19:04:16.378Z,10.10
2022-10-18T19:06:50.204Z,9.33
2022-10-18T19:09:25.325Z,11.80
2022-10-18T19:12:09.500Z,9.95
2022-10-18T19:14:45.158Z,12.38
2022-10-18T19:17:20.316Z,9.50
2022-10-18T19:19:55.034Z,8.60
2022-10-18T19:22:27.643Z,9.35
2022-10-18T19:27:44.904Z,8.18
2022-10-18T19:30:14.482Z,7.88
2022-10-18T19:32:54.023Z,8.75
2022-10-18T19:35:22.678Z,8.60
2022-10-18T19:37:57.308Z,7.63
2022-10-18T19:42:59.195Z,7.20
2022-10-18T19:45:40.147Z,11.07
2022-10-18T19:48:17.942Z,10.48
2022-10-18T19:50:48.271Z,9.63
2022-10-18T19:53:25.374Z,10.77
2022-10-18T19:56:05.916Z,8.95
2022-10-18T19:58:49.507Z,8.82
2022-10-18T20:01:24.186Z,9.63
2022-10-18T20:03:52.785Z,8.95
2022-10-18T20:06:34.773Z,7.80
2022-10-18T20:09:02.885Z,8.10
2022-10-18T20:11:32.454Z,8.30
2022-10-18T20:14:11.832Z,7.88
2022-10-18T20:16:45.131Z,7.22
2022-10-18T20:19:18.130Z,8.52
2022-10-18T20:21:48.403Z,8.93
2022-10-18T20:24:18.038Z,8.90
2022-10-18T20:26:50.761Z,8.68
2022-10-18T20:29:19.132Z,8.32
2022-10-18T20:31:49.549Z,8.60
2022-10-18T20:34:18.288Z,11.35
2022-10-18T20:36:45.713Z,8.68
2022-10-18T20:39:18.135Z,8.55
2022-10-18T20:41:52.113Z,8.57
2022-10-18T20:44:36.202Z,9.32
2022-10-18T20:47:05.290Z,7.85
2022-10-18T20:49:38.003Z,7.82
2022-10-18T20:52:07.294Z,7.88
2022-10-18T20:54:44.423Z,8.98
2022-10-18T20:57:13.224Z,7.13
2022-10-18T21:02:23.899Z,9.13
2022-10-18T21:04:53.054Z,9.98
2022-10-18T21:07:20.317Z,8.10
2022-10-18T21:09:52.601Z,8.07
2022-10-18T21:15:03.322Z,7.63
2022-10-18T21:17:33.929Z,7.88
2022-10-18T21:20:09.978Z,7.47
2022-10-18T21:22:37.843Z,8.15
2022-10-18T21:25:06.968Z,10.50
2022-10-18T21:27:36.058Z,8.00
2022-10-18T21:30:25.184Z,18.20
2022-10-18T21:32:57.411Z,14.65
2022-10-18T21:35:30.593Z,8.50
2022-10-18T21:38:02.164Z,9.25
2022-10-18T21:40:30.011Z,7.68
2022-10-18T21:43:04.784Z,10.23
2022-10-18T21:45:33.982Z,8.38
2022-10-18T21:48:07.758Z,12.18
2022-10-18T21:50:37.072Z,13.55
2022-10-18T21:53:05.882Z,8.77
2022-10-18T21:55:39.021Z,10.55
2022-10-18T21:58:13.810Z,10.38
2022-10-18T22:00:50.171Z,12.02
2022-10-18T22:03:23.105Z,9.10
2022-10-18T22:06:17.202Z,9.70
2022-10-18T22:09:00.769Z,14.57
2022-10-18T22:11:41.925Z,11.82
2022-10-18T22:17:00.173Z,8.93
2022-10-18T22:19:53.058Z,9.75
2022-10-18T22:22:28.997Z,9.25
2022-10-18T22:24:59.459Z,9.30
2022-10-18T22:27:45.619Z,9.15
2022-10-18T22:30:20.914Z,9.38
2022-10-18T22:32:50.203Z,8.32
2022-10-18T22:35:18.837Z,9.60
2022-10-18T22:37:50.213Z,9.18
2022-10-18T22:40:18.589Z,10.02
2022-10-18T22:42:49.882Z,9.60
2022-10-18T22:45:32.412Z,12.10
2022-10-18T22:48:02.068Z,10.82
2022-10-18T22:50:30.302Z,9.45
2022-10-18T22:53:05.989Z,10.43
2022-10-18T22:55:51.291Z,10.02
2022-10-18T22:58:21.182Z,9.60
2022-10-18T23:00:50.026Z,9.57
2022-10-18T23:03:23.907Z,12.65
2022-10-18T23:05:55.798Z,9.05
2022-10-18T23:08:24.618Z,27.00
2022-10-18T23:10:56.153Z,9.68
2022-10-18T23:13:38.768Z,9.65
2022-10-18T23:16:07.953Z,9.48
2022-10-18T23:21:11.166Z,10.85
2022-10-18T23:23:58.225Z,10.43
2022-10-18T23:29:35.588Z,10.25
2022-10-18T23:32:06.727Z,12.60
2022-10-18T23:34:39.776Z,9.68
2022-10-18T23:37:09.271Z,9.93
2022-10-18T23:39:41.883Z,12.23
2022-10-18T23:42:14.877Z,11.23
2022-10-18T23:44:43.377Z,9.88
2022-10-18T23:47:18.904Z,10.50
2022-10-18T23:49:56.186Z,13.30
2022-10-18T23:52:24.067Z,15.68
2022-10-18T23:54:54.101Z,10.48
2022-10-18T23:57:25.933Z,11.75
2022-10-18T23:59:58.290Z,13.05
